sensor_id;sensor_type;location;lat;lon;timestamp;temperature;humidity
5621;DHT22;2832;50.864;12.186;2023-02-01T00:01:42;6.80;99.90
5621;DHT22;2832;50.864;12.186;2023-02-01T00:04:10;6.80;99.90
5621;DHT22;2832;50.864;12.186;2023-02-01T00:06:39;6.80;99.90
5621;DHT22;2832;50.864;12.186;2023-02-01T00:09:07;6.80;99.90
5621;DHT22;2832;50.864;12.186;2023-02-01T00:11:35;6.80;99.90
5621;DHT22;2832;50.864;12.186;2023-02-01T00:14:03;6.80;99.90
5621;DHT22;2832;50.864;12.186;2023-02-01T00:16:31;6.80;99.90
5621;DHT22;2832;50.864;12.186;2023-02-01T00:19:01;6.80;99.90
5621;DHT22;2832;50.864;12.186;2023-02-01T00:21:30;6.80;99.90
5621;DHT22;2832;50.864;12.186;2023-02-01T00:24:00;6.80;99.90
5621;DHT22;2832;50.864;12.186;2023-02-01T00:26:31;6.90;99.90
5621;DHT22;2832;50.864;12.186;2023-02-01T00:29:01;6.80;99.90
5621;DHT22;2832;50.864;12.186;2023-02-01T00:31:29;6.80;99.90
5621;DHT22;2832;50.864;12.186;2023-02-01T00:33:58;6.80;99.90
5621;DHT22;2832;50.864;12.186;2023-02-01T00:36:26;6.80;99.90
5621;DHT22;2832;50.864;12.186;2023-02-01T00:38:55;6.80;99.90
5621;DHT22;2832;50.864;12.186;2023-02-01T00:41:25;6.80;99.90
5621;DHT22;2832;50.864;12.186;2023-02-01T00:43:53;6.80;99.90
5621;DHT22;2832;50.864;12.186;2023-02-01T00:46:21;6.80;99.90
5621;DHT22;2832;50.864;12.186;2023-02-01T00:48:49;6.80;99.90
5621;DHT22;2832;50.864;12.186;2023-02-01T00:51:18;6.80;99.90
5621;DHT22;2832;50.864;12.186;2023-02-01T00:53:47;6.80;99.90
5621;DHT22;2832;50.864;12.186;2023-02-01T00:56:16;6.80;99.90
5621;DHT22;2832;50.864;12.186;2023-02-01T00:58:45;6.80;99.90
5621;DHT22;2832;50.864;12.186;2023-02-01T01:01:15;6.80;99.90
5621;DHT22;2832;50.864;12.186;2023-02-01T01:03:46;6.80;99.90
5621;DHT22;2832;50.864;12.186;2023-02-01T01:06:19;6.80;99.90
5621;DHT22;2832;50.864;12.186;2023-02-01T01:08:47;6.80;99.90
5621;DHT22;2832;50.864;12.186;2023-02-01T01:11:17;6.80;99.90
5621;DHT22;2832;50.864;12.186;2023-02-01T01:13:48;6.80;99.90
5621;DHT22;2832;50.864;12.186;2023-02-01T01:16:17;6.80;99.90
5621;DHT22;2832;50.864;12.186;2023-02-01T01:18:46;6.90;99.90
5621;DHT22;2832;50.864;12.186;2023-02-01T01:21:15;6.80;99.90
5621;DHT22;2832;50.864;12.186;2023-02-01T01:23:44;6.90;99.90
5621;DHT22;2832;50.864;12.186;2023-02-01T01:26:15;6.90;99.90
5621;DHT22;2832;50.864;12.186;2023-02-01T01:28:45;6.90;99.90
5621;DHT22;2832;50.864;12.186;2023-02-01T01:31:16;6.90;99.90
5621;DHT22;2832;50.864;12.186;2023-02-01T01:33:48;6.90;99.90
5621;DHT22;2832;50.864;12.186;2023-02-01T01:36:16;6.80;99.90
5621;DHT22;2832;50.864;12.186;2023-02-01T01:38:45;6.90;99.90
5621;DHT22;2832;50.864;12.186;2023-02-01T01:41:15;6.90;99.90
5621;DHT22;2832;50.864;12.186;2023-02-01T01:43:48;6.90;99.90
5621;DHT22;2832;50.864;12.186;2023-02-01T01:46:18;6.90;99.90
5621;DHT22;2832;50.864;12.186;2023-02-01T01:48:48;6.90;99.90
5621;DHT22;2832;50.864;12.186;2023-02-01T01:51:19;6.90;99.90
5621;DHT22;2832;50.864;12.186;2023-02-01T01:53:53;6.90;99.90
5621;DHT22;2832;50.864;12.186;2023-02-01T01:56:22;6.90;99.90
5621;DHT22;2832;50.864;12.186;2023-02-01T01:58:50;6.90;99.90
5621;DHT22;2832;50.864;12.186;2023-02-01T02:01:21;6.90;99.90
5621;DHT22;2832;50.864;12.186;2023-02-01T02:03:50;6.90;99.90
5621;DHT22;2832;50.864;12.186;2023-02-01T02:06:27;6.80;99.90
5621;DHT22;2832;50.864;12.186;2023-02-01T02:08:56;6.80;99.90
5621;DHT22;2832;50.864;12.186;2023-02-01T02:11:26;6.80;99.90
5621;DHT22;2832;50.864;12.186;2023-02-01T02:13:55;6.70;99.90
5621;DHT22;2832;50.864;12.186;2023-02-01T02:16:37;6.70;99.90
5621;DHT22;2832;50.864;12.186;2023-02-01T02:19:52;6.80;99.90
5621;DHT22;2832;50.864;12.186;2023-02-01T02:23:03;6.80;99.90
5621;DHT22;2832;50.864;12.186;2023-02-01T02:26:07;6.70;99.90
5621;DHT22;2832;50.864;12.186;2023-02-01T02:29:17;6.70;99.90
5621;DHT22;2832;50.864;12.186;2023-02-01T02:32:04;6.70;99.90
5621;DHT22;2832;50.864;12.186;2023-02-01T02:34:39;6.70;99.90
5621;DHT22;2832;50.864;12.186;2023-02-01T02:37:15;6.70;99.90
5621;DHT22;2832;50.864;12.186;2023-02-01T02:39:53;6.80;99.90
5621;DHT22;2832;50.864;12.186;2023-02-01T02:42:29;6.80;99.90
5621;DHT22;2832;50.864;12.186;2023-02-01T02:45:18;6.80;99.90
5621;DHT22;2832;50.864;12.186;2023-02-01T02:48:12;6.80;99.90
5621;DHT22;2832;50.864;12.186;2023-02-01T02:50:49;6.80;99.90
5621;DHT22;2832;50.864;12.186;2023-02-01T02:53:38;6.80;99.90
5621;DHT22;2832;50.864;12.186;2023-02-01T02:56:28;6.80;99.90
5621;DHT22;2832;50.864;12.186;2023-02-01T02:59:18;6.70;99.90
5621;DHT22;2832;50.864;12.186;2023-02-01T03:02:05;6.70;99.90
5621;DHT22;2832;50.864;12.186;2023-02-01T03:04:52;6.70;99.90
5621;DHT22;2832;50.864;12.186;2023-02-01T03:10:42;6.70;99.90
5621;DHT22;2832;50.864;12.186;2023-02-01T03:13:30;6.70;99.90
5621;DHT22;2832;50.864;12.186;2023-02-01T03:16:02;6.70;99.90
5621;DHT22;2832;50.864;12.186;2023-02-01T03:18:35;6.80;99.90
5621;DHT22;2832;50.864;12.186;2023-02-01T03:21:08;6.80;99.90
5621;DHT22;2832;50.864;12.186;2023-02-01T03:23:37;6.80;99.90
5621;DHT22;2832;50.864;12.186;2023-02-01T03:26:12;6.80;99.90
5621;DHT22;2832;50.864;12.186;2023-02-01T03:28:44;6.80;99.90
5621;DHT22;2832;50.864;12.186;2023-02-01T03:31:20;6.90;99.90
5621;DHT22;2832;50.864;12.186;2023-02-01T03:33:48;6.90;99.90
5621;DHT22;2832;50.864;12.186;2023-02-01T03:36:22;6.90;99.90
5621;DHT22;2832;50.864;12.186;2023-02-01T03:39:00;6.90;99.90
5621;DHT22;2832;50.864;12.186;2023-02-01T03:41:37;6.90;99.90
5621;DHT22;2832;50.864;12.186;2023-02-01T03:44:13;7.00;99.90
5621;DHT22;2832;50.864;12.186;2023-02-01T03:46:47;6.90;99.90
5621;DHT22;2832;50.864;12.186;2023-02-01T03:49:20;6.90;99.90
5621;DHT22;2832;50.864;12.186;2023-02-01T03:51:51;6.90;99.90
5621;DHT22;2832;50.864;12.186;2023-02-01T03:54:23;6.80;99.90
5621;DHT22;2832;50.864;12.186;2023-02-01T03:56:55;6.80;99.90
5621;DHT22;2832;50.864;12.186;2023-02-01T03:59:24;6.80;99.90
5621;DHT22;2832;50.864;12.186;2023-02-01T04:01:53;6.80;99.90
5621;DHT22;2832;50.864;12.186;2023-02-01T04:04:21;6.80;99.90
5621;DHT22;2832;50.864;12.186;2023-02-01T04:06:50;6.80;99.90
5621;DHT22;2832;50.864;12.186;2023-02-01T04:09:18;6.80;99.90
5621;DHT22;2832;50.864;12.186;2023-02-01T04:11:50;6.80;99.90
5621;DHT22;2832;50.864;12.186;2023-02-01T04:14:20;6.80;99.90
5621;DHT22;2832;50.864;12.186;2023-02-01T04:16:48;6.80;99.90
5621;DHT22;2832;50.864;12.186;2023-02-01T04:19:16;6.80;99.90
5621;DHT22;2832;50.864;12.186;2023-02-01T04:21:45;6.70;99.90
5621;DHT22;2832;50.864;12.186;2023-02-01T04:24:13;6.70;99.90
5621;DHT22;2832;50.864;12.186;2023-02-01T04:26:41;6.70;99.90
5621;DHT22;2832;50.864;12.186;2023-02-01T04:29:09;6.70;99.90
5621;DHT22;2832;50.864;12.186;2023-02-01T04:31:39;6.70;99.90
5621;DHT22;2832;50.864;12.186;2023-02-01T04:34:08;6.80;99.90
5621;DHT22;2832;50.864;12.186;2023-02-01T04:36:36;6.70;99.90
5621;DHT22;2832;50.864;12.186;2023-02-01T04:39:04;6.80;99.90
5621;DHT22;2832;50.864;12.186;2023-02-01T04:41:35;6.70;99.90
5621;DHT22;2832;50.864;12.186;2023-02-01T04:44:05;6.70;99.90
5621;DHT22;2832;50.864;12.186;2023-02-01T04:46:33;6.70;99.90
5621;DHT22;2832;50.864;12.186;2023-02-01T04:49:03;6.70;99.90
5621;DHT22;2832;50.864;12.186;2023-02-01T04:51:31;6.80;99.90
5621;DHT22;2832;50.864;12.186;2023-02-01T04:53:59;6.80;99.90
5621;DHT22;2832;50.864;12.186;2023-02-01T04:56:27;6.80;99.90
5621;DHT22;2832;50.864;12.186;2023-02-01T04:58:56;6.80;99.90
5621;DHT22;2832;50.864;12.186;2023-02-01T05:01:24;6.80;99.90
5621;DHT22;2832;50.864;12.186;2023-02-01T05:03:53;6.80;99.90
5621;DHT22;2832;50.864;12.186;2023-02-01T05:06:27;6.80;99.90
5621;DHT22;2832;50.864;12.186;2023-02-01T05:08:57;6.80;99.90
5621;DHT22;2832;50.864;12.186;2023-02-01T05:11:25;6.80;99.90
5621;DHT22;2832;50.864;12.186;2023-02-01T05:14:11;6.90;99.90
5621;DHT22;2832;50.864;12.186;2023-02-01T05:16:39;6.90;99.90
5621;DHT22;2832;50.864;12.186;2023-02-01T05:19:07;6.90;99.90
5621;DHT22;2832;50.864;12.186;2023-02-01T05:21:38;6.90;99.90
5621;DHT22;2832;50.864;12.186;2023-02-01T05:24:08;6.80;99.90
5621;DHT22;2832;50.864;12.186;2023-02-01T05:26:47;6.80;99.90
5621;DHT22;2832;50.864;12.186;2023-02-01T05:29:18;6.80;99.90
5621;DHT22;2832;50.864;12.186;2023-02-01T05:31:48;6.80;99.90
5621;DHT22;2832;50.864;12.186;2023-02-01T05:34:19;6.80;99.90
5621;DHT22;2832;50.864;12.186;2023-02-01T05:36:50;6.90;99.90
5621;DHT22;2832;50.864;12.186;2023-02-01T05:39:18;6.90;99.90
5621;DHT22;2832;50.864;12.186;2023-02-01T05:41:47;6.90;99.90
5621;DHT22;2832;50.864;12.186;2023-02-01T05:44:18;6.80;99.90
5621;DHT22;2832;50.864;12.186;2023-02-01T05:46:49;6.80;99.90
5621;DHT22;2832;50.864;12.186;2023-02-01T05:49:25;6.80;99.90
5621;DHT22;2832;50.864;12.186;2023-02-01T05:51:59;6.80;99.90
5621;DHT22;2832;50.864;12.186;2023-02-01T05:54:34;6.80;99.90
5621;DHT22;2832;50.864;12.186;2023-02-01T05:57:10;6.80;99.90
5621;DHT22;2832;50.864;12.186;2023-02-01T05:59:49;6.80;99.90
5621;DHT22;2832;50.864;12.186;2023-02-01T06:02:18;6.80;99.90
5621;DHT22;2832;50.864;12.186;2023-02-01T06:04:50;6.80;99.90
5621;DHT22;2832;50.864;12.186;2023-02-01T06:07:26;6.90;99.90
5621;DHT22;2832;50.864;12.186;2023-02-01T06:09:57;6.90;99.90
5621;DHT22;2832;50.864;12.186;2023-02-01T06:12:27;6.80;99.90
5621;DHT22;2832;50.864;12.186;2023-02-01T06:14:55;6.80;99.90
5621;DHT22;2832;50.864;12.186;2023-02-01T06:17:26;6.80;99.90
5621;DHT22;2832;50.864;12.186;2023-02-01T06:19:56;6.80;99.90
5621;DHT22;2832;50.864;12.186;2023-02-01T06:22:31;6.80;99.90
5621;DHT22;2832;50.864;12.186;2023-02-01T06:25:10;6.80;99.90
5621;DHT22;2832;50.864;12.186;2023-02-01T06:27:40;6.90;99.90
5621;DHT22;2832;50.864;12.186;2023-02-01T06:30:14;6.90;99.90
5621;DHT22;2832;50.864;12.186;2023-02-01T06:32:51;6.80;99.90
5621;DHT22;2832;50.864;12.186;2023-02-01T06:35:21;6.90;99.90
5621;DHT22;2832;50.864;12.186;2023-02-01T06:37:52;6.90;99.90
5621;DHT22;2832;50.864;12.186;2023-02-01T06:40:21;6.90;99.90
5621;DHT22;2832;50.864;12.186;2023-02-01T06:42:50;6.90;99.90
5621;DHT22;2832;50.864;12.186;2023-02-01T06:45:22;6.90;99.90
5621;DHT22;2832;50.864;12.186;2023-02-01T06:47:54;6.80;99.90
5621;DHT22;2832;50.864;12.186;2023-02-01T06:50:24;6.80;99.90
5621;DHT22;2832;50.864;12.186;2023-02-01T06:52:57;6.80;99.90
5621;DHT22;2832;50.864;12.186;2023-02-01T06:55:26;6.80;99.90
5621;DHT22;2832;50.864;12.186;2023-02-01T06:57:55;6.90;99.90
5621;DHT22;2832;50.864;12.186;2023-02-01T07:00:25;6.90;99.90
5621;DHT22;2832;50.864;12.186;2023-02-01T07:02:58;6.90;99.90
5621;DHT22;2832;50.864;12.186;2023-02-01T07:05:28;6.90;99.90
5621;DHT22;2832;50.864;12.186;2023-02-01T07:07:59;6.90;99.90
5621;DHT22;2832;50.864;12.186;2023-02-01T07:10:28;7.00;99.90
5621;DHT22;2832;50.864;12.186;2023-02-01T07:12:57;7.00;99.90
5621;DHT22;2832;50.864;12.186;2023-02-01T07:15:29;7.00;99.90
5621;DHT22;2832;50.864;12.186;2023-02-01T07:18:07;7.00;99.90
5621;DHT22;2832;50.864;12.186;2023-02-01T07:20:36;7.00;99.90
5621;DHT22;2832;50.864;12.186;2023-02-01T07:23:11;7.00;99.90
5621;DHT22;2832;50.864;12.186;2023-02-01T07:25:42;7.00;99.90
5621;DHT22;2832;50.864;12.186;2023-02-01T07:28:10;7.00;99.90
5621;DHT22;2832;50.864;12.186;2023-02-01T07:30:39;7.00;99.90
5621;DHT22;2832;50.864;12.186;2023-02-01T07:33:17;7.00;99.90
5621;DHT22;2832;50.864;12.186;2023-02-01T07:35:54;7.00;99.90
5621;DHT22;2832;50.864;12.186;2023-02-01T07:38:27;7.00;99.90
5621;DHT22;2832;50.864;12.186;2023-02-01T07:40:58;7.10;99.90
5621;DHT22;2832;50.864;12.186;2023-02-01T07:43:26;7.00;99.90
5621;DHT22;2832;50.864;12.186;2023-02-01T07:45:55;7.00;99.90
5621;DHT22;2832;50.864;12.186;2023-02-01T07:48:25;6.90;99.90
5621;DHT22;2832;50.864;12.186;2023-02-01T07:50:58;6.90;99.90
5621;DHT22;2832;50.864;12.186;2023-02-01T07:53:30;7.00;99.90
5621;DHT22;2832;50.864;12.186;2023-02-01T07:56:00;7.00;99.90
5621;DHT22;2832;50.864;12.186;2023-02-01T07:58:29;7.00;99.90
5621;DHT22;2832;50.864;12.186;2023-02-01T08:00:58;7.00;99.90
5621;DHT22;2832;50.864;12.186;2023-02-01T08:03:40;7.00;99.90
5621;DHT22;2832;50.864;12.186;2023-02-01T08:06:10;7.10;99.90
5621;DHT22;2832;50.864;12.186;2023-02-01T08:08:43;7.10;99.90
5621;DHT22;2832;50.864;12.186;2023-02-01T08:11:15;7.10;99.90
5621;DHT22;2832;50.864;12.186;2023-02-01T08:13:47;7.10;99.90
5621;DHT22;2832;50.864;12.186;2023-02-01T08:16:17;7.10;99.90
5621;DHT22;2832;50.864;12.186;2023-02-01T08:18:47;7.10;99.90
5621;DHT22;2832;50.864;12.186;2023-02-01T08:21:20;7.10;99.90
5621;DHT22;2832;50.864;12.186;2023-02-01T08:23:59;7.10;99.90
5621;DHT22;2832;50.864;12.186;2023-02-01T08:26:32;7.20;99.90
5621;DHT22;2832;50.864;12.186;2023-02-01T08:29:04;7.20;99.90
5621;DHT22;2832;50.864;12.186;2023-02-01T08:31:34;7.10;99.90
5621;DHT22;2832;50.864;12.186;2023-02-01T08:34:07;7.10;99.90
5621;DHT22;2832;50.864;12.186;2023-02-01T08:36:38;7.10;99.90
5621;DHT22;2832;50.864;12.186;2023-02-01T08:39:09;7.20;99.90
5621;DHT22;2832;50.864;12.186;2023-02-01T08:41:38;7.10;99.90
5621;DHT22;2832;50.864;12.186;2023-02-01T08:44:08;7.10;99.90
5621;DHT22;2832;50.864;12.186;2023-02-01T08:46:37;7.20;99.90
5621;DHT22;2832;50.864;12.186;2023-02-01T08:49:06;7.20;99.90
5621;DHT22;2832;50.864;12.186;2023-02-01T08:51:34;7.20;99.90
5621;DHT22;2832;50.864;12.186;2023-02-01T08:54:03;7.20;99.90
5621;DHT22;2832;50.864;12.186;2023-02-01T08:56:33;7.20;99.90
5621;DHT22;2832;50.864;12.186;2023-02-01T08:59:01;7.20;99.90
5621;DHT22;2832;50.864;12.186;2023-02-01T09:01:31;7.20;99.90
5621;DHT22;2832;50.864;12.186;2023-02-01T09:03:59;7.20;99.90
5621;DHT22;2832;50.864;12.186;2023-02-01T09:06:28;7.30;99.90
5621;DHT22;2832;50.864;12.186;2023-02-01T09:08:56;7.30;99.90
5621;DHT22;2832;50.864;12.186;2023-02-01T09:11:24;7.30;99.90
5621;DHT22;2832;50.864;12.186;2023-02-01T09:13:57;7.30;99.90
5621;DHT22;2832;50.864;12.186;2023-02-01T09:16:25;7.30;99.90
5621;DHT22;2832;50.864;12.186;2023-02-01T09:18:56;7.30;99.90
5621;DHT22;2832;50.864;12.186;2023-02-01T09:21:25;7.40;99.90
5621;DHT22;2832;50.864;12.186;2023-02-01T09:23:54;7.40;99.90
5621;DHT22;2832;50.864;12.186;2023-02-01T09:26:23;7.40;99.90
5621;DHT22;2832;50.864;12.186;2023-02-01T09:28:52;7.30;99.90
5621;DHT22;2832;50.864;12.186;2023-02-01T09:31:22;7.30;99.90
5621;DHT22;2832;50.864;12.186;2023-02-01T09:33:54;7.30;99.90
5621;DHT22;2832;50.864;12.186;2023-02-01T09:36:22;7.30;99.90
5621;DHT22;2832;50.864;12.186;2023-02-01T09:38:55;7.30;99.90
5621;DHT22;2832;50.864;12.186;2023-02-01T09:41:33;7.30;99.90
5621;DHT22;2832;50.864;12.186;2023-02-01T09:44:10;7.40;99.90
5621;DHT22;2832;50.864;12.186;2023-02-01T09:46:43;7.30;99.90
5621;DHT22;2832;50.864;12.186;2023-02-01T09:49:16;7.40;99.90
5621;DHT22;2832;50.864;12.186;2023-02-01T09:51:50;7.40;99.90
5621;DHT22;2832;50.864;12.186;2023-02-01T09:54:20;7.40;99.90
5621;DHT22;2832;50.864;12.186;2023-02-01T09:56:55;7.40;99.90
5621;DHT22;2832;50.864;12.186;2023-02-01T09:59:34;7.40;99.90
5621;DHT22;2832;50.864;12.186;2023-02-01T10:02:14;7.40;99.90
5621;DHT22;2832;50.864;12.186;2023-02-01T10:04:46;7.40;99.90
5621;DHT22;2832;50.864;12.186;2023-02-01T10:07:23;7.40;99.90
5621;DHT22;2832;50.864;12.186;2023-02-01T10:10:01;7.40;99.90
5621;DHT22;2832;50.864;12.186;2023-02-01T10:15:54;7.50;99.90
5621;DHT22;2832;50.864;12.186;2023-02-01T10:18:51;7.50;99.90
5621;DHT22;2832;50.864;12.186;2023-02-01T10:21:35;7.60;99.90
5621;DHT22;2832;50.864;12.186;2023-02-01T10:24:21;7.70;99.90
5621;DHT22;2832;50.864;12.186;2023-02-01T10:26:57;7.70;99.90
5621;DHT22;2832;50.864;12.186;2023-02-01T10:29:33;7.60;99.90
5621;DHT22;2832;50.864;12.186;2023-02-01T10:32:07;7.60;99.90
5621;DHT22;2832;50.864;12.186;2023-02-01T10:34:40;7.60;99.90
5621;DHT22;2832;50.864;12.186;2023-02-01T10:37:27;7.50;99.90
5621;DHT22;2832;50.864;12.186;2023-02-01T10:40:00;7.50;99.90
5621;DHT22;2832;50.864;12.186;2023-02-01T10:42:31;7.50;99.90
5621;DHT22;2832;50.864;12.186;2023-02-01T10:45:03;7.50;99.90
5621;DHT22;2832;50.864;12.186;2023-02-01T10:47:32;7.50;99.90
5621;DHT22;2832;50.864;12.186;2023-02-01T10:50:13;7.50;99.90
5621;DHT22;2832;50.864;12.186;2023-02-01T10:52:47;7.50;99.90
5621;DHT22;2832;50.864;12.186;2023-02-01T10:55:34;7.50;99.90
5621;DHT22;2832;50.864;12.186;2023-02-01T10:58:05;7.40;99.90
5621;DHT22;2832;50.864;12.186;2023-02-01T11:00:41;7.40;99.90
5621;DHT22;2832;50.864;12.186;2023-02-01T11:03:30;7.40;99.90
5621;DHT22;2832;50.864;12.186;2023-02-01T11:06:03;7.50;99.90
5621;DHT22;2832;50.864;12.186;2023-02-01T11:08:33;7.50;99.90
5621;DHT22;2832;50.864;12.186;2023-02-01T11:11:03;7.50;99.90
5621;DHT22;2832;50.864;12.186;2023-02-01T11:13:37;7.60;99.90
5621;DHT22;2832;50.864;12.186;2023-02-01T11:16:10;7.60;99.90
5621;DHT22;2832;50.864;12.186;2023-02-01T11:18:39;7.60;99.90
5621;DHT22;2832;50.864;12.186;2023-02-01T11:21:11;7.60;99.90
5621;DHT22;2832;50.864;12.186;2023-02-01T11:23:44;7.60;99.90
5621;DHT22;2832;50.864;12.186;2023-02-01T11:26:14;7.60;99.90
5621;DHT22;2832;50.864;12.186;2023-02-01T11:28:57;7.60;99.90
5621;DHT22;2832;50.864;12.186;2023-02-01T11:31:29;7.60;99.90
5621;DHT22;2832;50.864;12.186;2023-02-01T11:34:07;7.60;99.90
5621;DHT22;2832;50.864;12.186;2023-02-01T11:36:40;7.60;99.90
5621;DHT22;2832;50.864;12.186;2023-02-01T11:39:19;7.60;99.90
5621;DHT22;2832;50.864;12.186;2023-02-01T11:42:01;7.60;99.90
5621;DHT22;2832;50.864;12.186;2023-02-01T11:44:36;7.60;99.90
5621;DHT22;2832;50.864;12.186;2023-02-01T11:47:23;7.70;99.90
5621;DHT22;2832;50.864;12.186;2023-02-01T11:49:55;7.60;99.90
5621;DHT22;2832;50.864;12.186;2023-02-01T11:52:52;7.60;99.90
5621;DHT22;2832;50.864;12.186;2023-02-01T11:55:38;7.70;99.90
5621;DHT22;2832;50.864;12.186;2023-02-01T11:58:29;7.60;99.90
5621;DHT22;2832;50.864;12.186;2023-02-01T12:01:10;7.70;99.90
5621;DHT22;2832;50.864;12.186;2023-02-01T12:04:08;7.70;99.90
5621;DHT22;2832;50.864;12.186;2023-02-01T12:06:49;7.70;99.90
5621;DHT22;2832;50.864;12.186;2023-02-01T12:09:44;7.70;99.90
5621;DHT22;2832;50.864;12.186;2023-02-01T12:12:24;7.70;99.90
5621;DHT22;2832;50.864;12.186;2023-02-01T12:15:15;7.70;99.90
5621;DHT22;2832;50.864;12.186;2023-02-01T12:18:02;7.70;99.90
5621;DHT22;2832;50.864;12.186;2023-02-01T12:21:06;7.80;99.90
5621;DHT22;2832;50.864;12.186;2023-02-01T12:26:46;7.80;99.90
5621;DHT22;2832;50.864;12.186;2023-02-01T12:29:47;7.80;99.90
5621;DHT22;2832;50.864;12.186;2023-02-01T12:32:35;7.80;99.90
5621;DHT22;2832;50.864;12.186;2023-02-01T12:35:38;7.80;99.90
5621;DHT22;2832;50.864;12.186;2023-02-01T12:38:23;7.90;99.90
5621;DHT22;2832;50.864;12.186;2023-02-01T12:41:07;7.90;99.90
5621;DHT22;2832;50.864;12.186;2023-02-01T12:43:45;7.90;99.90
5621;DHT22;2832;50.864;12.186;2023-02-01T12:46:19;7.90;99.90
5621;DHT22;2832;50.864;12.186;2023-02-01T12:48:58;7.90;99.90
5621;DHT22;2832;50.864;12.186;2023-02-01T12:51:36;7.90;99.90
5621;DHT22;2832;50.864;12.186;2023-02-01T12:54:13;7.90;99.90
5621;DHT22;2832;50.864;12.186;2023-02-01T12:56:51;8.00;99.90
5621;DHT22;2832;50.864;12.186;2023-02-01T12:59:27;7.90;99.90
5621;DHT22;2832;50.864;12.186;2023-02-01T13:02:06;7.90;99.90
5621;DHT22;2832;50.864;12.186;2023-02-01T13:04:49;7.90;99.90
5621;DHT22;2832;50.864;12.186;2023-02-01T13:07:25;7.90;99.90
5621;DHT22;2832;50.864;12.186;2023-02-01T13:09:59;7.90;99.90
5621;DHT22;2832;50.864;12.186;2023-02-01T13:12:38;7.90;99.90
5621;DHT22;2832;50.864;12.186;2023-02-01T13:15:16;7.80;99.90
5621;DHT22;2832;50.864;12.186;2023-02-01T13:17:47;7.80;99.90
5621;DHT22;2832;50.864;12.186;2023-02-01T13:20:21;7.80;99.90
5621;DHT22;2832;50.864;12.186;2023-02-01T13:22:57;7.90;99.90
5621;DHT22;2832;50.864;12.186;2023-02-01T13:25:34;7.90;99.90
5621;DHT22;2832;50.864;12.186;2023-02-01T13:28:06;7.90;99.90
5621;DHT22;2832;50.864;12.186;2023-02-01T13:30:50;7.80;99.90
5621;DHT22;2832;50.864;12.186;2023-02-01T13:33:41;7.80;99.90
5621;DHT22;2832;50.864;12.186;2023-02-01T13:39:36;7.90;99.90
5621;DHT22;2832;50.864;12.186;2023-02-01T13:42:15;8.40;99.90
5621;DHT22;2832;50.864;12.186;2023-02-01T13:44:46;8.70;99.90
5621;DHT22;2832;50.864;12.186;2023-02-01T13:47:24;9.00;99.90
5621;DHT22;2832;50.864;12.186;2023-02-01T13:49:55;9.30;99.90
5621;DHT22;2832;50.864;12.186;2023-02-01T13:52:38;9.50;99.90
5621;DHT22;2832;50.864;12.186;2023-02-01T13:55:24;9.70;99.90
5621;DHT22;2832;50.864;12.186;2023-02-01T13:58:17;9.80;99.90
5621;DHT22;2832;50.864;12.186;2023-02-01T14:00:48;9.90;99.90
5621;DHT22;2832;50.864;12.186;2023-02-01T14:03:43;10.00;99.90
5621;DHT22;2832;50.864;12.186;2023-02-01T14:09:17;10.20;99.90
5621;DHT22;2832;50.864;12.186;2023-02-01T14:11:51;10.20;99.90
5621;DHT22;2832;50.864;12.186;2023-02-01T14:14:44;10.30;99.90
5621;DHT22;2832;50.864;12.186;2023-02-01T14:17:40;10.30;99.90
5621;DHT22;2832;50.864;12.186;2023-02-01T14:23:27;10.40;99.90
5621;DHT22;2832;50.864;12.186;2023-02-01T14:26:16;10.40;99.90
5621;DHT22;2832;50.864;12.186;2023-02-01T14:28:55;10.50;99.90
5621;DHT22;2832;50.864;12.186;2023-02-01T14:31:53;10.50;99.90
5621;DHT22;2832;50.864;12.186;2023-02-01T14:34:28;10.60;99.90
5621;DHT22;2832;50.864;12.186;2023-02-01T14:37:00;10.60;99.90
5621;DHT22;2832;50.864;12.186;2023-02-01T14:39:40;10.60;99.90
5621;DHT22;2832;50.864;12.186;2023-02-01T14:42:21;10.70;99.90
5621;DHT22;2832;50.864;12.186;2023-02-01T14:44:51;10.70;99.90
5621;DHT22;2832;50.864;12.186;2023-02-01T14:47:30;10.80;99.90
5621;DHT22;2832;50.864;12.186;2023-02-01T14:50:31;10.70;99.90
5621;DHT22;2832;50.864;12.186;2023-02-01T14:53:18;10.70;99.90
5621;DHT22;2832;50.864;12.186;2023-02-01T14:55:53;10.80;99.90
5621;DHT22;2832;50.864;12.186;2023-02-01T14:58:35;10.80;99.90
5621;DHT22;2832;50.864;12.186;2023-02-01T15:01:13;10.90;99.90
5621;DHT22;2832;50.864;12.186;2023-02-01T15:04:00;10.80;99.90
5621;DHT22;2832;50.864;12.186;2023-02-01T15:06:33;10.90;99.90
5621;DHT22;2832;50.864;12.186;2023-02-01T15:09:07;10.90;99.90
5621;DHT22;2832;50.864;12.186;2023-02-01T15:12:03;11.00;99.90
5621;DHT22;2832;50.864;12.186;2023-02-01T15:14:34;11.00;99.90
5621;DHT22;2832;50.864;12.186;2023-02-01T15:17:15;11.00;99.90
5621;DHT22;2832;50.864;12.186;2023-02-01T15:19:53;11.00;99.90
5621;DHT22;2832;50.864;12.186;2023-02-01T15:22:22;11.10;99.90
5621;DHT22;2832;50.864;12.186;2023-02-01T15:24:53;11.10;99.90
5621;DHT22;2832;50.864;12.186;2023-02-01T15:27:27;11.10;99.90
5621;DHT22;2832;50.864;12.186;2023-02-01T15:30:05;11.20;99.90
5621;DHT22;2832;50.864;12.186;2023-02-01T15:32:40;11.20;99.90
5621;DHT22;2832;50.864;12.186;2023-02-01T15:35:40;11.10;99.90
5621;DHT22;2832;50.864;12.186;2023-02-01T15:38:25;11.10;99.90
5621;DHT22;2832;50.864;12.186;2023-02-01T15:41:01;11.10;99.90
5621;DHT22;2832;50.864;12.186;2023-02-01T15:43:34;11.10;99.90
5621;DHT22;2832;50.864;12.186;2023-02-01T15:46:08;11.10;99.90
5621;DHT22;2832;50.864;12.186;2023-02-01T15:48:40;11.20;99.90
5621;DHT22;2832;50.864;12.186;2023-02-01T15:51:19;11.20;99.90
5621;DHT22;2832;50.864;12.186;2023-02-01T15:53:53;11.10;99.90
5621;DHT22;2832;50.864;12.186;2023-02-01T15:56:27;10.90;99.90
5621;DHT22;2832;50.864;12.186;2023-02-01T15:59:01;10.50;99.90
5621;DHT22;2832;50.864;12.186;2023-02-01T16:01:36;10.20;99.90
5621;DHT22;2832;50.864;12.186;2023-02-01T16:04:16;9.90;99.90
5621;DHT22;2832;50.864;12.186;2023-02-01T16:06:47;9.60;99.90
5621;DHT22;2832;50.864;12.186;2023-02-01T16:09:18;9.50;99.90
5621;DHT22;2832;50.864;12.186;2023-02-01T16:11:55;9.40;99.90
5621;DHT22;2832;50.864;12.186;2023-02-01T16:14:27;9.30;99.90
5621;DHT22;2832;50.864;12.186;2023-02-01T16:16:58;9.20;99.90
5621;DHT22;2832;50.864;12.186;2023-02-01T16:19:26;9.00;99.90
5621;DHT22;2832;50.864;12.186;2023-02-01T16:21:57;9.00;99.90
5621;DHT22;2832;50.864;12.186;2023-02-01T16:24:27;9.00;99.90
5621;DHT22;2832;50.864;12.186;2023-02-01T16:26:55;8.90;99.90
5621;DHT22;2832;50.864;12.186;2023-02-01T16:29:25;8.90;99.90
5621;DHT22;2832;50.864;12.186;2023-02-01T16:31:55;8.80;99.90
5621;DHT22;2832;50.864;12.186;2023-02-01T16:34:23;8.80;99.90
5621;DHT22;2832;50.864;12.186;2023-02-01T16:36:51;8.70;99.90
5621;DHT22;2832;50.864;12.186;2023-02-01T16:39:24;8.70;99.90
5621;DHT22;2832;50.864;12.186;2023-02-01T16:41:53;8.70;99.90
5621;DHT22;2832;50.864;12.186;2023-02-01T16:44:21;8.70;99.90
5621;DHT22;2832;50.864;12.186;2023-02-01T16:46:52;8.60;99.90
5621;DHT22;2832;50.864;12.186;2023-02-01T16:49:22;8.60;99.90
5621;DHT22;2832;50.864;12.186;2023-02-01T16:51:55;8.60;99.90
5621;DHT22;2832;50.864;12.186;2023-02-01T16:54:24;8.60;99.90
5621;DHT22;2832;50.864;12.186;2023-02-01T16:56:53;8.60;99.90
5621;DHT22;2832;50.864;12.186;2023-02-01T16:59:22;8.60;99.90
5621;DHT22;2832;50.864;12.186;2023-02-01T17:01:54;8.60;99.90
5621;DHT22;2832;50.864;12.186;2023-02-01T17:04:23;8.60;99.90
5621;DHT22;2832;50.864;12.186;2023-02-01T17:06:52;8.60;99.90